createdAt,value
2023-06-21T00:01:51.152Z,99880.61
2023-06-21T00:05:59.617Z,99886.33
2023-06-21T00:10:09.208Z,99894.20
2023-06-21T00:14:17.174Z,99894.96
2023-06-21T00:18:25.782Z,99901.17
2023-06-21T00:22:35.000Z,99901.17
2023-06-21T00:26:43.434Z,99888.69
2023-06-21T00:30:51.500Z,99885.84
2023-06-21T00:34:59.234Z,99884.68
2023-06-21T00:39:07.940Z,99877.48
2023-06-21T00:43:18.137Z,99879.59
2023-06-21T00:47:26.065Z,99875.17
2023-06-21T00:51:35.115Z,99875.61
2023-06-21T00:55:43.077Z,99872.98
2023-06-21T00:59:51.025Z,99867.60
2023-06-21T01:04:00.300Z,99869.64
2023-06-21T01:08:16.778Z,99873.73
2023-06-21T01:12:34.969Z,99878.27
2023-06-21T01:16:46.115Z,99879.73
2023-06-21T01:20:58.691Z,99878.95
2023-06-21T01:25:21.962Z,99878.54
2023-06-21T01:29:34.530Z,99876.59
2023-06-21T01:33:43.079Z,99869.73
2023-06-21T01:37:52.705Z,99858.92
2023-06-21T01:42:01.242Z,99858.75
2023-06-21T01:46:11.295Z,99857.23
2023-06-21T01:50:20.240Z,99857.65
2023-06-21T01:54:28.698Z,99863.10
2023-06-21T01:58:37.182Z,99870.73
2023-06-21T02:02:48.556Z,99867.83
2023-06-21T02:06:56.899Z,99869.02
2023-06-21T02:11:06.918Z,99873.74
2023-06-21T02:15:16.145Z,99876.42
2023-06-21T02:19:26.361Z,99873.13
2023-06-21T02:23:34.278Z,99873.35
2023-06-21T02:27:42.533Z,99869.69
2023-06-21T02:31:52.086Z,99864.98
2023-06-21T02:36:00.316Z,99862.59
2023-06-21T02:40:12.126Z,99866.91
2023-06-21T02:44:21.305Z,99879.63
2023-06-21T02:48:28.961Z,99879.66
2023-06-21T02:52:36.966Z,99890.55
2023-06-21T02:56:45.125Z,99897.18
2023-06-21T03:00:53.340Z,99902.48
2023-06-21T03:05:01.451Z,99898.76
2023-06-21T03:09:09.121Z,99897.10
2023-06-21T03:13:18.061Z,99897.28
2023-06-21T03:17:28.222Z,99899.24
2023-06-21T03:21:36.520Z,99903.13
2023-06-21T03:25:44.568Z,99910.70
2023-06-21T03:29:52.214Z,99905.73
2023-06-21T03:34:00.153Z,99907.88
2023-06-21T03:38:09.947Z,99903.67
2023-06-21T03:42:18.157Z,99902.85
2023-06-21T03:46:26.365Z,99904.91
2023-06-21T03:50:34.340Z,99900.33
2023-06-21T03:54:41.982Z,99893.00
2023-06-21T03:58:50.427Z,99885.80
2023-06-21T04:02:59.329Z,99876.27
2023-06-21T04:07:09.884Z,99870.23
2023-06-21T04:11:19.425Z,99864.65
2023-06-21T04:15:31.907Z,99859.86
2023-06-21T04:19:39.637Z,99852.73
2023-06-21T04:23:47.769Z,99863.20
2023-06-21T04:27:55.717Z,99876.30
2023-06-21T04:32:06.292Z,99885.41
2023-06-21T04:36:18.718Z,99889.09
2023-06-21T04:40:27.957Z,99891.32
2023-06-21T04:44:36.257Z,99896.02
2023-06-21T04:48:43.868Z,99888.55
2023-06-21T04:52:51.736Z,99888.54
2023-06-21T04:56:59.907Z,99889.48
2023-06-21T05:01:08.971Z,99901.27
2023-06-21T05:05:16.750Z,99930.27
2023-06-21T05:09:24.540Z,99988.46
2023-06-21T05:13:33.240Z,100021.26
2023-06-21T05:17:40.955Z,100017.80
2023-06-21T05:21:48.571Z,100011.69
2023-06-21T05:25:55.973Z,100007.39
2023-06-21T05:30:03.879Z,100004.02
2023-06-21T05:34:12.179Z,99996.81
2023-06-21T05:38:19.515Z,99999.78
2023-06-21T05:42:26.877Z,99993.33
2023-06-21T05:46:35.611Z,99996.04
2023-06-21T05:50:44.362Z,99995.70
2023-06-21T05:54:52.288Z,99993.24
2023-06-21T05:59:00.669Z,99996.50
2023-06-21T06:03:10.026Z,99996.14
2023-06-21T06:07:20.423Z,99993.70
2023-06-21T06:11:28.648Z,99987.88
2023-06-21T06:15:36.107Z,99990.95
2023-06-21T06:19:44.375Z,99985.73
2023-06-21T06:23:52.961Z,99977.84
2023-06-21T06:28:00.569Z,99964.83
2023-06-21T06:32:10.639Z,99974.45
2023-06-21T06:36:21.206Z,99968.50
2023-06-21T06:40:28.970Z,99965.16
2023-06-21T06:44:38.493Z,99966.34
2023-06-21T06:48:46.379Z,99989.17
2023-06-21T06:52:55.104Z,100011.81
2023-06-21T06:57:03.007Z,100024.61
2023-06-21T07:01:11.562Z,100034.13
2023-06-21T07:05:19.602Z,100034.88
2023-06-21T07:09:28.010Z,100045.83
2023-06-21T07:13:35.417Z,100048.66
2023-06-21T07:17:43.184Z,100059.91
2023-06-21T07:21:51.424Z,100059.76
2023-06-21T07:25:58.841Z,100064.20
2023-06-21T07:30:08.047Z,100058.77
2023-06-21T07:34:17.286Z,100066.73
2023-06-21T07:38:24.981Z,100071.88
2023-06-21T07:42:32.673Z,100079.62
2023-06-21T07:46:40.290Z,100081.55
2023-06-21T07:50:48.107Z,100077.08
2023-06-21T07:54:55.899Z,100081.39
2023-06-21T07:59:03.869Z,100083.57
2023-06-21T08:03:12.217Z,100082.81
2023-06-21T08:07:22.551Z,100080.36
2023-06-21T08:11:31.731Z,100078.03
2023-06-21T08:15:39.457Z,100077.58
2023-06-21T08:19:47.058Z,100081.44
2023-06-21T08:23:54.724Z,100084.72
2023-06-21T08:28:02.482Z,100081.85
2023-06-21T08:32:10.972Z,100085.86
2023-06-21T08:36:19.920Z,100085.63
2023-06-21T08:40:32.263Z,100092.84
2023-06-21T08:44:40.490Z,100100.74
2023-06-21T08:48:50.516Z,100102.35
2023-06-21T08:53:00.531Z,100105.85
2023-06-21T08:57:13.284Z,100111.44
2023-06-21T09:01:28.386Z,100110.95
2023-06-21T09:05:43.583Z,100113.88
2023-06-21T09:09:53.530Z,100115.98
2023-06-21T09:14:01.454Z,100124.09
2023-06-21T09:18:09.472Z,100123.20
2023-06-21T09:22:17.827Z,100122.66
2023-06-21T09:26:25.277Z,100115.94
2023-06-21T09:30:38.933Z,100114.01
2023-06-21T09:34:47.025Z,100117.20
2023-06-21T09:38:55.174Z,100112.98
2023-06-21T09:43:02.897Z,100108.48
2023-06-21T09:47:15.157Z,100104.19
2023-06-21T09:51:27.132Z,100108.19
2023-06-21T09:55:34.701Z,100105.98
2023-06-21T09:59:43.348Z,100106.46
2023-06-21T10:03:51.331Z,100102.69
2023-06-21T10:07:59.382Z,100099.61
2023-06-21T10:12:07.929Z,100095.11
2023-06-21T10:16:19.073Z,100094.84
2023-06-21T10:20:27.513Z,100093.09
2023-06-21T10:24:42.145Z,100092.52
2023-06-21T10:28:53.410Z,100095.41
2023-06-21T10:33:06.455Z,100099.84
2023-06-21T10:37:23.402Z,100097.02
2023-06-21T10:41:31.501Z,100085.75
2023-06-21T10:45:40.702Z,100077.08
2023-06-21T10:49:49.302Z,100076.73
2023-06-21T10:53:58.973Z,100070.56
2023-06-21T10:58:08.221Z,100065.23
2023-06-21T11:02:15.746Z,100061.86
2023-06-21T11:06:33.352Z,100066.58
2023-06-21T11:10:48.303Z,100067.66
2023-06-21T11:14:56.197Z,100066.50
2023-06-21T11:19:08.933Z,100072.84
2023-06-21T11:23:19.635Z,100076.15
2023-06-21T11:27:27.674Z,100077.48
2023-06-21T11:31:42.636Z,100055.61
2023-06-21T11:35:53.793Z,100082.54
2023-06-21T11:40:03.767Z,100086.14
2023-06-21T11:44:13.221Z,100092.84
2023-06-21T11:48:21.223Z,100093.09
2023-06-21T11:52:35.069Z,100090.82
2023-06-21T11:56:47.087Z,100087.52
2023-06-21T12:00:55.381Z,100082.86
2023-06-21T12:05:06.202Z,100076.20
2023-06-21T12:09:14.484Z,100073.08
2023-06-21T12:13:25.340Z,100073.10
2023-06-21T12:17:32.600Z,100070.19
2023-06-21T12:21:41.600Z,100060.48
2023-06-21T12:25:51.438Z,100061.22
2023-06-21T12:29:58.801Z,100067.66
2023-06-21T12:34:06.738Z,100070.09
2023-06-21T12:38:16.415Z,100070.80
2023-06-21T12:42:30.690Z,100068.98
2023-06-21T12:46:42.202Z,100073.30
2023-06-21T12:50:50.236Z,100074.02
2023-06-21T12:54:58.343Z,100071.98
2023-06-21T12:59:06.813Z,100075.43
2023-06-21T13:03:15.093Z,100071.45
2023-06-21T13:07:23.191Z,100072.88
2023-06-21T13:11:31.010Z,100074.66
2023-06-21T13:15:39.086Z,100076.27
2023-06-21T13:19:46.854Z,100072.42
2023-06-21T13:23:55.811Z,100069.27
2023-06-21T13:28:03.750Z,100062.69
2023-06-21T13:32:14.346Z,100052.59
2023-06-21T13:36:22.078Z,100047.36
2023-06-21T13:40:30.252Z,100054.76
2023-06-21T13:44:38.505Z,100052.18
2023-06-21T13:48:46.833Z,100054.23
2023-06-21T13:52:54.401Z,100053.91
2023-06-21T13:57:05.184Z,100058.64
2023-06-21T14:01:12.837Z,100054.27
2023-06-21T14:05:22.948Z,100054.80
2023-06-21T14:09:30.708Z,100064.39
2023-06-21T14:13:38.759Z,100075.53
2023-06-21T14:17:46.598Z,100077.07
2023-06-21T14:21:54.917Z,100074.84
2023-06-21T14:26:02.995Z,100078.17
2023-06-21T14:30:16.101Z,100069.25
2023-06-21T14:34:24.127Z,100065.38
2023-06-21T14:38:32.373Z,100061.50
2023-06-21T14:42:40.148Z,100053.11
2023-06-21T14:46:47.976Z,100049.02
2023-06-21T14:50:56.169Z,100045.38
2023-06-21T14:55:04.236Z,100046.13
2023-06-21T14:59:11.784Z,100049.16
2023-06-21T15:03:19.654Z,100047.00
2023-06-21T15:07:27.541Z,100044.45
2023-06-21T15:11:35.245Z,100041.91
2023-06-21T15:15:43.733Z,100045.67
2023-06-21T15:19:51.840Z,100053.09
2023-06-21T15:23:59.628Z,100052.23
2023-06-21T15:28:07.609Z,100060.22
2023-06-21T15:32:15.657Z,100067.96
2023-06-21T15:36:23.055Z,100068.32
2023-06-21T15:40:30.584Z,100073.51
2023-06-21T15:44:38.409Z,100082.34
2023-06-21T15:48:46.389Z,100080.10
2023-06-21T15:52:54.043Z,100079.70
2023-06-21T15:57:02.500Z,100084.10
2023-06-21T16:01:13.393Z,100078.93
2023-06-21T16:05:21.468Z,100080.52
2023-06-21T16:09:29.451Z,100083.42
2023-06-21T16:13:46.400Z,100081.45
2023-06-21T16:17:55.370Z,100077.22
2023-06-21T16:22:02.949Z,100073.91
2023-06-21T16:26:10.476Z,100068.52
2023-06-21T16:30:18.889Z,100067.61
2023-06-21T16:34:26.552Z,100061.23
2023-06-21T16:38:34.613Z,100065.86
2023-06-21T16:42:42.320Z,100067.15
2023-06-21T16:46:50.840Z,100072.95
2023-06-21T16:50:58.774Z,100078.61
2023-06-21T16:55:06.908Z,100076.66
2023-06-21T16:59:14.943Z,100083.55
2023-06-21T17:03:23.187Z,100086.66
2023-06-21T17:07:31.467Z,100087.89
2023-06-21T17:11:38.937Z,100089.39
2023-06-21T17:15:46.614Z,100087.30
2023-06-21T17:19:55.251Z,100090.83
2023-06-21T17:24:03.444Z,100090.17
2023-06-21T17:28:11.433Z,100081.94
2023-06-21T17:32:20.105Z,100078.98
2023-06-21T17:36:28.018Z,100081.86
2023-06-21T17:40:36.100Z,100088.02
2023-06-21T17:44:43.724Z,100078.75
2023-06-21T17:48:51.456Z,100066.41
2023-06-21T17:52:59.336Z,100076.08
2023-06-21T17:57:08.611Z,100076.89
2023-06-21T18:01:17.494Z,100073.02
2023-06-21T18:05:25.824Z,100078.35
2023-06-21T18:09:34.098Z,100083.11
2023-06-21T18:13:42.155Z,100089.03
2023-06-21T18:17:49.565Z,100090.59
2023-06-21T18:22:11.337Z,100097.23
2023-06-21T18:26:20.726Z,100100.80
2023-06-21T18:30:28.648Z,100099.92
2023-06-21T18:34:37.348Z,100100.65
2023-06-21T18:38:45.970Z,100103.05
2023-06-21T18:42:53.695Z,100110.70
2023-06-21T18:47:05.347Z,100116.33
2023-06-21T18:51:13.141Z,100117.67
2023-06-21T18:55:22.065Z,100128.64
2023-06-21T18:59:30.382Z,100137.67
2023-06-21T19:03:38.706Z,100141.48
2023-06-21T19:07:46.704Z,100150.20
2023-06-21T19:11:54.126Z,100149.05
2023-06-21T19:16:01.870Z,100145.38
2023-06-21T19:20:12.081Z,100150.39
2023-06-21T19:24:20.264Z,100154.72
2023-06-21T19:28:28.050Z,100159.28
2023-06-21T19:32:35.886Z,100166.92
2023-06-21T19:36:43.322Z,100178.16
2023-06-21T19:40:51.881Z,100183.62
2023-06-21T19:44:59.346Z,100184.53
2023-06-21T19:49:07.693Z,100185.53
2023-06-21T19:53:15.742Z,100191.86
2023-06-21T19:57:24.964Z,100198.16
2023-06-21T20:01:33.222Z,100208.38
2023-06-21T20:05:41.028Z,100218.70
2023-06-21T20:09:48.468Z,100232.68
2023-06-21T20:13:56.048Z,100251.70
2023-06-21T20:18:03.713Z,100262.58
2023-06-21T20:22:11.483Z,100264.51
2023-06-21T20:26:21.657Z,100269.98
2023-06-21T20:30:29.610Z,100280.72
2023-06-21T20:34:38.745Z,100288.61
2023-06-21T20:38:46.372Z,100287.00
2023-06-21T20:42:56.176Z,100291.17
2023-06-21T20:47:06.919Z,100290.63
2023-06-21T20:51:14.716Z,100289.03
2023-06-21T20:55:27.471Z,100295.83
2023-06-21T20:59:35.171Z,100295.51
2023-06-21T21:03:42.959Z,100304.02
2023-06-21T21:07:51.393Z,100310.28
2023-06-21T21:11:59.532Z,100313.10
2023-06-21T21:16:07.489Z,100311.85
2023-06-21T21:20:15.595Z,100312.89
2023-06-21T21:24:23.042Z,100316.84
2023-06-21T21:28:30.887Z,100323.97
2023-06-21T21:32:39.021Z,100320.05
2023-06-21T21:36:46.861Z,100313.11
2023-06-21T21:40:54.382Z,100314.65
2023-06-21T21:45:03.405Z,100315.48
2023-06-21T21:49:10.903Z,100318.07
2023-06-21T21:53:18.432Z,100317.55
2023-06-21T21:57:27.031Z,100324.53
2023-06-21T22:01:35.448Z,100327.17
2023-06-21T22:05:43.246Z,100328.55
2023-06-21T22:09:51.141Z,100336.63
2023-06-21T22:13:58.874Z,100334.56
2023-06-21T22:18:07.313Z,100336.90
2023-06-21T22:22:18.756Z,100332.98
2023-06-21T22:26:26.595Z,100332.27
2023-06-21T22:30:39.308Z,100331.73
2023-06-21T22:34:53.484Z,100329.65
2023-06-21T22:39:01.644Z,100331.40
2023-06-21T22:43:09.309Z,100329.36
2023-06-21T22:47:18.885Z,100329.08
2023-06-21T22:51:28.200Z,100335.41
2023-06-21T22:55:37.124Z,100346.50
2023-06-21T22:59:44.696Z,100351.48
2023-06-21T23:03:52.840Z,100354.39
2023-06-21T23:08:02.582Z,100357.71
2023-06-21T23:12:11.966Z,100364.41
2023-06-21T23:16:22.910Z,100372.92
2023-06-21T23:20:34.588Z,100373.73
2023-06-21T23:24:43.030Z,100377.29
2023-06-21T23:28:50.990Z,100370.17
2023-06-21T23:32:58.833Z,100373.98
2023-06-21T23:37:06.563Z,100377.84
2023-06-21T23:41:15.364Z,100384.88
2023-06-21T23:45:23.190Z,100396.48
2023-06-21T23:49:30.901Z,100395.86
2023-06-21T23:53:39.610Z,100397.74
2023-06-21T23:57:47.271Z,100395.89
